Time;durP1;ratioP1;P1;durP2;ratioP2;P2;SDS_P1;SDS_P2;PMS_P1;PMS_P2;Temp;Humidity;BMP_temperature;BMP_pressure;BME280_temperature;BME280_humidity;BME280_pressure;Samples;Min_cycle;Max_cycle;Signal;HPM_P1;HPM_P2
2023/08/22 00:02:01;;;;;;;5.10;3.85;;;29.10;56.90;;;;;;5121976;27;20024;-64
2023/08/22 00:04:27;;;;;;;4.18;3.53;;;29.10;56.80;;;;;;5121477;27;20031;-63
2023/08/22 00:06:52;;;;;;;4.20;3.58;;;29.10;56.80;;;;;;5120309;27;20034;-64
2023/08/22 00:09:18;;;;;;;4.72;3.72;;;29.10;56.80;;;;;;5121632;27;20054;-63
2023/08/22 00:11:44;;;;;;;4.38;3.80;;;29.10;56.80;;;;;;5121043;27;20023;-63
2023/08/22 00:14:09;;;;;;;4.55;3.60;;;29.10;56.90;;;;;;5120641;27;20493;-63
2023/08/22 00:16:35;;;;;;;4.50;3.78;;;29.10;56.80;;;;;;5123022;27;20018;-63
2023/08/22 00:19:01;;;;;;;4.10;3.65;;;29.10;56.80;;;;;;5103230;27;20125;-63
2023/08/22 00:21:26;;;;;;;4.30;3.60;;;29.10;56.80;;;;;;5121954;27;20604;-63
2023/08/22 00:23:52;;;;;;;3.97;3.58;;;29.10;56.80;;;;;;5121649;27;20080;-63
2023/08/22 00:26:17;;;;;;;4.63;3.72;;;29.10;56.90;;;;;;5120608;27;20028;-64
2023/08/22 00:28:43;;;;;;;4.68;3.92;;;29.10;56.90;;;;;;5120810;27;20505;-63
2023/08/22 00:31:09;;;;;;;4.13;3.40;;;29.10;56.80;;;;;;5122843;27;20074;-63
2023/08/22 00:33:34;;;;;;;3.90;3.50;;;29.00;56.80;;;;;;5120309;27;20064;-63
2023/08/22 00:36:00;;;;;;;4.20;3.60;;;29.10;56.80;;;;;;5122997;27;20047;-63
2023/08/22 00:38:25;;;;;;;4.47;3.80;;;29.10;56.80;;;;;;5121464;27;20026;-63
2023/08/22 00:40:51;;;;;;;4.03;3.22;;;29.10;56.80;;;;;;5119805;27;20024;-63
2023/08/22 00:43:17;;;;;;;4.22;3.47;;;29.10;56.90;;;;;;5120420;27;20012;-62
2023/08/22 00:45:43;;;;;;;4.53;3.83;;;29.10;56.80;;;;;;5122052;27;20027;-64
2023/08/22 00:48:09;;;;;;;4.10;3.47;;;29.10;56.80;;;;;;5120520;27;20463;-64
2023/08/22 00:50:35;;;;;;;4.35;3.67;;;29.10;56.80;;;;;;5119720;27;20044;-68
2023/08/22 00:53:01;;;;;;;3.65;3.22;;;29.10;56.90;;;;;;5119646;27;20027;-69
2023/08/22 00:55:27;;;;;;;4.40;3.60;;;29.00;56.80;;;;;;5119483;27;20463;-69
2023/08/22 00:57:53;;;;;;;4.10;3.40;;;29.10;56.90;;;;;;5119909;27;20106;-69
2023/08/22 01:00:18;;;;;;;4.10;3.63;;;29.10;56.90;;;;;;5118803;27;20176;-68
2023/08/22 01:02:44;;;;;;;4.00;3.53;;;29.10;56.90;;;;;;5121643;27;20042;-69
2023/08/22 01:05:10;;;;;;;4.72;3.80;;;29.00;56.80;;;;;;5120945;27;20085;-69
2023/08/22 01:07:41;;;;;;;4.15;3.63;;;29.10;56.90;;;;;;5119014;27;20457;-69
2023/08/22 01:10:32;;;;;;;3.67;3.33;;;29.10;56.90;;;;;;5122555;27;20020;-67
2023/08/22 01:13:07;;;;;;;4.18;3.47;;;29.10;56.90;;;;;;5119664;27;20435;-67
2023/08/22 01:15:38;;;;;;;4.18;3.50;;;29.10;56.90;;;;;;5120503;27;20051;-67
2023/08/22 01:18:04;;;;;;;4.80;3.63;;;29.00;56.80;;;;;;5121520;27;20059;-67
2023/08/22 01:20:31;;;;;;;3.60;3.13;;;29.10;56.90;;;;;;5122880;27;20543;-67
2023/08/22 01:22:57;;;;;;;3.72;3.30;;;29.00;56.80;;;;;;5119570;27;20080;-68
2023/08/22 01:25:25;;;;;;;3.97;3.47;;;29.10;56.90;;;;;;5122197;27;20577;-67
2023/08/22 01:27:57;;;;;;;4.18;3.65;;;29.10;56.90;;;;;;5119437;27;20028;-67
2023/08/22 01:30:34;;;;;;;4.15;3.50;;;29.10;56.90;;;;;;5116569;27;20478;-67
2023/08/22 01:33:16;;;;;;;4.10;3.70;;;29.00;56.80;;;;;;5117268;27;20042;-67
2023/08/22 01:35:46;;;;;;;4.28;3.38;;;29.10;56.90;;;;;;5119681;27;20038;-67
2023/08/22 01:38:13;;;;;;;3.85;3.45;;;29.00;56.80;;;;;;5119754;27;20023;-67
2023/08/22 01:40:39;;;;;;;4.07;3.50;;;29.00;56.80;;;;;;5105205;27;20386;-67
2023/08/22 01:43:05;;;;;;;4.70;3.55;;;29.10;56.90;;;;;;5119019;27;20036;-68
2023/08/22 01:45:30;;;;;;;3.80;3.40;;;29.10;56.90;;;;;;5115885;27;20023;-67
2023/08/22 01:47:56;;;;;;;3.90;3.40;;;29.00;56.80;;;;;;5118152;27;20030;-67
2023/08/22 01:50:22;;;;;;;3.80;3.30;;;29.00;56.80;;;;;;5119626;27;20421;-68
2023/08/22 01:52:47;;;;;;;4.05;3.45;;;29.00;56.80;;;;;;5119848;27;20107;-67
2023/08/22 01:55:14;;;;;;;4.30;3.50;;;29.00;56.80;;;;;;5121495;27;20459;-67
2023/08/22 01:57:40;;;;;;;4.10;3.50;;;29.00;56.80;;;;;;5117945;27;20386;-67
2023/08/22 02:00:07;;;;;;;4.07;3.50;;;29.00;56.80;;;;;;5119751;27;20027;-65
2023/08/22 02:02:32;;;;;;;4.13;3.33;;;29.00;56.90;;;;;;5121320;27;20044;-62
2023/08/22 02:04:58;;;;;;;4.43;3.58;;;29.00;56.80;;;;;;5119696;27;20032;-63
2023/08/22 02:07:24;;;;;;;3.90;3.28;;;29.00;56.90;;;;;;5117681;27;20407;-65
2023/08/22 02:09:49;;;;;;;4.10;3.45;;;29.00;56.80;;;;;;5118131;27;20027;-63
2023/08/22 02:12:15;;;;;;;4.00;3.50;;;29.00;56.80;;;;;;5101888;28;20491;-63
2023/08/22 02:14:40;;;;;;;3.88;3.13;;;29.00;56.80;;;;;;5117881;27;20031;-64
2023/08/22 02:17:06;;;;;;;3.78;3.22;;;29.00;56.80;;;;;;5119639;27;20024;-64
2023/08/22 02:19:31;;;;;;;3.42;3.00;;;29.00;56.80;;;;;;5119701;27;20031;-67
2023/08/22 02:21:57;;;;;;;4.22;3.58;;;29.00;56.80;;;;;;5117998;27;20051;-67
2023/08/22 02:24:23;;;;;;;3.97;3.45;;;29.00;56.80;;;;;;5121054;27;20019;-67
2023/08/22 02:26:48;;;;;;;4.05;3.20;;;29.00;56.90;;;;;;5118028;27;20673;-67
2023/08/22 02:29:14;;;;;;;3.97;3.50;;;29.00;56.90;;;;;;5118574;27;20064;-67
2023/08/22 02:31:39;;;;;;;3.70;3.30;;;29.00;56.80;;;;;;5118543;27;20098;-68
2023/08/22 02:34:05;;;;;;;3.50;3.17;;;29.00;56.80;;;;;;5118489;27;20039;-67
2023/08/22 02:36:31;;;;;;;4.00;3.40;;;29.00;56.90;;;;;;5118576;27;20731;-67
2023/08/22 02:38:56;;;;;;;4.30;3.53;;;29.00;56.90;;;;;;5119328;27;20471;-67
2023/08/22 02:41:22;;;;;;;4.00;3.40;;;29.00;56.90;;;;;;5117715;27;20031;-67
2023/08/22 02:43:47;;;;;;;3.83;3.40;;;29.00;56.80;;;;;;5119716;27;20023;-67
2023/08/22 02:46:13;;;;;;;3.83;3.40;;;29.00;56.90;;;;;;5117913;27;20445;-68
2023/08/22 02:48:39;;;;;;;3.90;3.40;;;29.00;56.90;;;;;;5118675;27;20031;-67
2023/08/22 02:51:04;;;;;;;3.58;3.05;;;29.00;56.90;;;;;;5116366;27;20067;-67
2023/08/22 02:53:30;;;;;;;3.47;3.10;;;29.00;56.90;;;;;;5117703;27;20051;-67
2023/08/22 02:55:57;;;;;;;4.22;3.47;;;29.00;56.90;;;;;;5119170;27;20043;-67
2023/08/22 02:58:22;;;;;;;4.00;3.25;;;29.00;56.90;;;;;;5116787;27;20024;-67
2023/08/22 03:00:48;;;;;;;3.38;3.03;;;29.00;56.90;;;;;;5118584;27;20374;-67
2023/08/22 03:03:14;;;;;;;4.00;3.60;;;29.00;56.90;;;;;;5117005;27;20033;-67
2023/08/22 03:05:58;;;;;;;3.80;3.28;;;29.00;56.90;;;;;;5119256;28;20031;-67
2023/08/22 03:08:24;;;;;;;3.85;3.20;;;29.00;56.90;;;;;;5118450;28;20122;-67
2023/08/22 03:10:49;;;;;;;4.10;3.30;;;29.00;56.90;;;;;;5116864;28;20431;-67
2023/08/22 03:13:15;;;;;;;4.00;3.60;;;29.00;56.90;;;;;;5119925;28;20042;-67
2023/08/22 03:15:41;;;;;;;4.28;3.38;;;29.00;56.90;;;;;;5117281;28;20043;-67
2023/08/22 03:18:06;;;;;;;4.03;3.40;;;29.00;56.90;;;;;;5119050;28;20471;-67
2023/08/22 03:20:32;;;;;;;3.47;3.08;;;29.00;56.90;;;;;;5119885;28;20024;-67
2023/08/22 03:22:58;;;;;;;3.80;3.20;;;29.00;56.90;;;;;;5117572;27;20035;-67
2023/08/22 03:25:23;;;;;;;3.58;3.03;;;29.00;56.90;;;;;;5122901;27;20441;-67
2023/08/22 03:27:49;;;;;;;3.88;3.15;;;29.00;56.90;;;;;;5122931;27;20538;-67
2023/08/22 03:30:14;;;;;;;4.15;3.38;;;29.00;56.90;;;;;;5120485;27;20031;-66
2023/08/22 03:32:40;;;;;;;4.03;3.25;;;29.00;56.90;;;;;;5124878;27;20486;-67
2023/08/22 03:35:07;;;;;;;4.03;3.50;;;29.00;56.90;;;;;;5122692;27;20054;-67
2023/08/22 03:37:32;;;;;;;4.47;3.25;;;29.00;56.90;;;;;;5123000;27;20019;-67
2023/08/22 03:39:58;;;;;;;3.67;3.10;;;29.00;56.90;;;;;;5122869;27;20019;-67
2023/08/22 03:42:24;;;;;;;3.47;3.15;;;28.90;56.80;;;;;;5104119;27;20475;-67
2023/08/22 03:44:49;;;;;;;4.20;3.63;;;28.90;56.90;;;;;;5119994;27;20026;-66
2023/08/22 03:47:15;;;;;;;5.43;4.05;;;29.00;56.80;;;;;;5123702;27;20494;-67
2023/08/22 03:49:40;;;;;;;5.82;4.07;;;29.00;56.70;;;;;;5123937;27;20083;-67
2023/08/22 03:52:06;;;;;;;4.55;3.83;;;28.90;56.50;;;;;;5121765;27;20019;-67
2023/08/22 03:54:32;;;;;;;4.95;3.88;;;28.90;56.40;;;;;;5122175;27;20036;-67
2023/08/22 03:56:57;;;;;;;5.70;4.25;;;28.90;56.30;;;;;;5121290;27;20471;-67
2023/08/22 03:59:23;;;;;;;5.32;4.45;;;28.90;56.20;;;;;;5119844;27;20020;-65
2023/08/22 04:01:48;;;;;;;5.60;4.68;;;28.90;56.00;;;;;;5120853;27;20364;-66
2023/08/22 04:04:14;;;;;;;4.97;4.47;;;28.90;55.80;;;;;;5121042;27;20033;-66
2023/08/22 04:06:41;;;;;;;5.90;4.75;;;28.90;55.70;;;;;;5122432;27;20031;-68
2023/08/22 04:09:07;;;;;;;8.98;5.43;;;28.80;55.70;;;;;;5122968;27;20019;-66
2023/08/22 04:11:33;;;;;;;6.90;4.90;;;28.80;55.80;;;;;;5121347;27;20463;-68
2023/08/22 04:13:58;;;;;;;6.10;4.68;;;28.80;55.80;;;;;;5119364;27;20115;-67
2023/08/22 04:16:24;;;;;;;6.22;4.82;;;28.70;55.90;;;;;;5119630;27;20399;-67
2023/08/22 04:18:49;;;;;;;4.72;4.32;;;28.70;56.00;;;;;;5120056;27;20041;-65
2023/08/22 04:21:15;;;;;;;6.00;5.20;;;28.70;56.10;;;;;;5123351;27;20197;-68
2023/08/22 04:23:40;;;;;;;7.47;5.70;;;28.60;56.00;;;;;;5121964;27;20024;-68
2023/08/22 04:26:06;;;;;;;6.20;4.97;;;28.60;56.10;;;;;;5121861;27;20023;-68
2023/08/22 04:28:33;;;;;;;5.45;4.60;;;28.60;56.30;;;;;;5121537;27;20023;-68
2023/08/22 04:30:59;;;;;;;6.88;4.55;;;28.60;56.50;;;;;;5120360;27;20056;-68
2023/08/22 04:33:25;;;;;;;5.88;5.22;;;28.60;56.50;;;;;;5119953;27;20036;-66
2023/08/22 04:35:51;;;;;;;5.20;4.15;;;28.60;56.50;;;;;;5120751;27;20054;-66
2023/08/22 04:38:16;;;;;;;4.80;4.30;;;28.50;56.40;;;;;;5122851;27;20435;-68
2023/08/22 04:40:46;;;;;;;5.13;4.63;;;28.50;56.40;;;;;;5120528;27;20066;-67
2023/08/22 04:43:11;;;;;;;5.07;4.40;;;28.50;56.40;;;;;;5122258;27;20032;-68
2023/08/22 04:45:37;;;;;;;4.90;4.40;;;28.50;56.40;;;;;;5120932;27;20030;-67
2023/08/22 04:48:03;;;;;;;6.03;4.57;;;28.40;56.40;;;;;;5122261;27;20168;-69
2023/08/22 04:50:31;;;;;;;5.50;5.00;;;28.40;56.40;;;;;;5122027;27;20423;-67
2023/08/22 04:52:57;;;;;;;7.05;5.15;;;28.40;56.30;;;;;;5121284;27;20539;-70
2023/08/22 04:55:23;;;;;;;6.38;4.85;;;28.40;56.20;;;;;;5119869;27;20023;-69
2023/08/22 04:57:49;;;;;;;5.10;4.20;;;28.40;56.30;;;;;;5122057;27;20098;-69
2023/08/22 05:00:16;;;;;;;5.95;4.13;;;28.40;56.40;;;;;;5120893;27;20130;-69
2023/08/22 05:02:42;;;;;;;4.97;4.45;;;28.40;56.50;;;;;;5119511;27;20145;-69
2023/08/22 05:05:10;;;;;;;6.03;4.43;;;28.40;56.50;;;;;;5119792;27;20027;-67
2023/08/22 05:07:36;;;;;;;4.35;3.95;;;28.30;56.40;;;;;;5119136;27;20468;-68
2023/08/22 05:10:02;;;;;;;4.97;4.00;;;28.30;56.50;;;;;;5119925;27;20422;-68
2023/08/22 05:12:28;;;;;;;7.03;4.20;;;28.30;56.50;;;;;;5119243;27;20040;-68
2023/08/22 05:14:56;;;;;;;5.15;4.65;;;28.30;56.60;;;;;;5121912;27;20444;-68
2023/08/22 05:17:21;;;;;;;6.78;4.90;;;28.30;56.50;;;;;;5120392;27;20034;-67
2023/08/22 05:19:47;;;;;;;5.10;4.60;;;28.30;56.50;;;;;;5119415;27;20031;-67
2023/08/22 05:22:12;;;;;;;6.20;4.90;;;28.30;56.50;;;;;;5121382;27;20035;-67
2023/08/22 05:24:38;;;;;;;4.88;4.38;;;28.30;56.50;;;;;;5119379;27;20088;-67
2023/08/22 05:27:04;;;;;;;6.03;5.20;;;28.30;56.60;;;;;;5120901;27;20063;-67
2023/08/22 05:29:29;;;;;;;5.47;4.88;;;28.30;56.60;;;;;;5119451;27;20022;-63
2023/08/22 05:31:55;;;;;;;6.18;4.85;;;28.30;56.70;;;;;;5118370;27;20027;-63
2023/08/22 05:34:21;;;;;;;9.63;5.15;;;28.30;56.70;;;;;;5102471;27;20024;-63
2023/08/22 05:36:46;;;;;;;5.90;4.45;;;28.20;56.70;;;;;;5121186;27;20043;-63
2023/08/22 05:39:12;;;;;;;4.72;4.22;;;28.20;56.90;;;;;;5118910;27;20023;-63
2023/08/22 05:41:37;;;;;;;4.97;4.28;;;28.20;57.00;;;;;;5118058;27;20094;-63
2023/08/22 05:44:03;;;;;;;5.03;3.97;;;28.20;57.10;;;;;;5121456;27;20035;-63
2023/08/22 05:46:29;;;;;;;4.53;4.00;;;28.20;57.20;;;;;;5115950;27;20036;-63
2023/08/22 05:48:55;;;;;;;5.63;4.28;;;28.10;57.20;;;;;;5120082;27;20517;-63
2023/08/22 05:51:21;;;;;;;4.78;4.00;;;28.10;57.20;;;;;;5117913;27;20467;-66
2023/08/22 05:53:46;;;;;;;4.72;3.90;;;28.10;57.20;;;;;;5119900;27;20447;-66
2023/08/22 05:56:12;;;;;;;5.35;3.97;;;28.10;57.20;;;;;;5119827;27;20065;-66
2023/08/22 05:58:38;;;;;;;4.90;3.80;;;28.10;57.20;;;;;;5120035;27;20106;-65
2023/08/22 06:01:10;;;;;;;4.55;4.03;;;28.10;57.20;;;;;;5119021;27;20023;-66
2023/08/22 06:03:37;;;;;;;4.70;4.20;;;28.10;57.20;;;;;;5117854;27;20038;-66
2023/08/22 06:06:03;;;;;;;5.28;4.18;;;28.10;57.20;;;;;;5118326;27;20024;-66
2023/08/22 06:08:29;;;;;;;5.47;4.35;;;28.10;57.20;;;;;;5107815;28;20039;-66
2023/08/22 06:10:54;;;;;;;4.50;4.10;;;28.10;57.20;;;;;;5117187;27;20099;-65
2023/08/22 06:13:20;;;;;;;4.43;3.78;;;28.10;57.70;;;;;;5120254;27;20032;-66
2023/08/22 06:15:45;;;;;;;4.15;3.75;;;28.10;57.10;;;;;;5117959;27;20028;-65
2023/08/22 06:18:11;;;;;;;3.90;3.47;;;28.10;57.10;;;;;;5119157;27;20463;-66
2023/08/22 06:20:40;;;;;;;4.60;3.90;;;28.10;57.60;;;;;;5120985;27;20027;-66
2023/08/22 06:23:06;;;;;;;5.55;4.15;;;28.10;57.60;;;;;;5121530;27;20378;-66
2023/08/22 06:25:32;;;;;;;4.60;4.07;;;28.10;57.10;;;;;;5118028;27;20031;-66
2023/08/22 06:27:58;;;;;;;4.97;3.65;;;28.10;57.10;;;;;;5118669;27;20026;-66
2023/08/22 06:30:24;;;;;;;5.22;3.85;;;28.10;57.10;;;;;;5119467;27;20027;-66
2023/08/22 06:32:49;;;;;;;4.75;3.90;;;28.10;57.10;;;;;;5115582;27;20391;-66
2023/08/22 06:35:15;;;;;;;4.82;3.75;;;28.10;57.10;;;;;;5118895;27;20547;-66
2023/08/22 06:37:41;;;;;;;4.60;4.03;;;28.10;57.60;;;;;;5120907;27;20034;-66
2023/08/22 06:40:07;;;;;;;4.32;3.78;;;28.10;57.10;;;;;;5101842;28;20939;-67
2023/08/22 06:42:32;;;;;;;4.25;3.67;;;28.10;57.10;;;;;;5120236;27;20030;-67
2023/08/22 06:44:58;;;;;;;4.53;3.80;;;28.10;57.10;;;;;;5117420;27;20032;-67
2023/08/22 06:47:24;;;;;;;3.95;3.55;;;28.10;57.10;;;;;;5116427;27;20039;-67
2023/08/22 06:49:49;;;;;;;4.22;3.70;;;28.20;57.10;;;;;;5117842;27;20495;-67
2023/08/22 06:52:15;;;;;;;4.63;3.20;;;28.10;57.10;;;;;;5118732;27;20019;-67
2023/08/22 06:54:41;;;;;;;3.90;3.50;;;28.10;57.00;;;;;;5119097;27;20024;-67
2023/08/22 06:57:07;;;;;;;3.85;3.42;;;28.20;57.10;;;;;;5119393;27;20876;-68
2023/08/22 06:59:33;;;;;;;4.68;3.65;;;28.20;57.10;;;;;;5117578;27;20026;-64
2023/08/22 07:01:58;;;;;;;4.35;3.80;;;28.20;57.10;;;;;;5118205;27;20032;-64
2023/08/22 07:04:25;;;;;;;5.57;3.80;;;28.20;57.10;;;;;;5118417;28;20401;-64
2023/08/22 07:06:50;;;;;;;4.93;3.70;;;28.10;57.00;;;;;;5117316;28;20024;-64
2023/08/22 07:09:16;;;;;;;3.80;3.40;;;28.10;57.00;;;;;;5116476;28;20031;-64
2023/08/22 07:11:42;;;;;;;3.90;3.50;;;28.10;57.00;;;;;;5115768;28;20496;-64
2023/08/22 07:14:08;;;;;;;4.03;3.63;;;28.10;57.00;;;;;;5119753;28;20015;-64
2023/08/22 07:16:33;;;;;;;4.03;3.63;;;28.20;57.10;;;;;;5117523;28;20053;-64
2023/08/22 07:18:59;;;;;;;4.35;3.80;;;28.10;57.00;;;;;;5116974;28;20693;-64
2023/08/22 07:21:24;;;;;;;3.90;3.50;;;28.10;57.00;;;;;;5117200;28;20131;-64
2023/08/22 07:23:50;;;;;;;4.35;3.88;;;28.20;57.10;;;;;;5117969;28;20088;-64
2023/08/22 07:26:16;;;;;;;4.57;3.92;;;28.20;57.10;;;;;;5118958;28;20031;-64
2023/08/22 07:28:41;;;;;;;4.20;3.70;;;28.10;57.10;;;;;;5117150;28;20466;-64
2023/08/22 07:31:07;;;;;;;4.15;3.50;;;28.20;57.10;;;;;;5117746;28;20050;-64
2023/08/22 07:33:33;;;;;;;4.03;3.40;;;28.20;57.10;;;;;;5116397;28;20027;-64
2023/08/22 07:35:59;;;;;;;3.80;3.50;;;28.10;57.00;;;;;;5102222;28;20054;-64
2023/08/22 07:38:25;;;;;;;4.53;3.88;;;28.10;57.00;;;;;;5101417;28;20042;-65
2023/08/22 07:40:51;;;;;;;4.05;3.58;;;28.20;57.10;;;;;;5117520;28;20424;-64
2023/08/22 07:43:16;;;;;;;4.07;3.65;;;28.10;57.00;;;;;;5117134;28;20076;-64
2023/08/22 07:45:42;;;;;;;3.97;3.58;;;28.10;57.00;;;;;;5118813;28;20061;-64
2023/08/22 07:48:08;;;;;;;4.20;3.40;;;28.20;57.10;;;;;;5116692;28;20024;-64
2023/08/22 07:50:34;;;;;;;4.43;3.67;;;28.20;57.10;;;;;;5118130;28;20034;-66
2023/08/22 07:53:00;;;;;;;3.90;3.50;;;28.10;57.10;;;;;;5116559;28;20034;-66
2023/08/22 07:55:26;;;;;;;5.18;3.65;;;28.20;57.10;;;;;;5118154;28;20031;-65
2023/08/22 07:57:52;;;;;;;4.28;3.20;;;28.20;57.10;;;;;;5118804;28;20030;-66
2023/08/22 08:00:18;;;;;;;4.00;3.38;;;28.20;57.10;;;;;;5117752;28;20023;-66
2023/08/22 08:02:44;;;;;;;3.70;3.40;;;28.20;57.10;;;;;;5118926;28;20028;-66
2023/08/22 08:05:12;;;;;;;3.50;3.13;;;28.20;57.10;;;;;;5118489;28;20463;-66
2023/08/22 08:07:38;;;;;;;4.97;4.00;;;28.20;57.20;;;;;;5117142;28;20534;-66
2023/08/22 08:10:04;;;;;;;4.55;3.80;;;28.20;57.10;;;;;;5117909;27;20036;-67
2023/08/22 08:12:30;;;;;;;4.30;3.90;;;28.20;57.10;;;;;;5121744;27;20117;-66
2023/08/22 08:14:56;;;;;;;4.10;3.70;;;28.30;57.00;;;;;;5120501;27;20910;-67
2023/08/22 08:17:22;;;;;;;4.10;3.70;;;28.30;56.90;;;;;;5121249;27;20493;-68
2023/08/22 08:19:48;;;;;;;4.43;4.03;;;28.30;56.80;;;;;;5121857;27;20118;-67
2023/08/22 08:22:14;;;;;;;4.78;4.28;;;28.40;56.90;;;;;;5119067;27;20019;-67
2023/08/22 08:24:40;;;;;;;4.38;3.97;;;28.40;56.80;;;;;;5120653;27;20035;-66
2023/08/22 08:27:06;;;;;;;4.10;3.70;;;28.40;56.80;;;;;;5118672;27;20042;-67
2023/08/22 08:29:32;;;;;;;4.30;3.90;;;28.40;56.80;;;;;;5122557;27;20027;-66
2023/08/22 08:31:57;;;;;;;4.50;4.10;;;28.50;56.80;;;;;;5119929;27;20081;-66
2023/08/22 08:34:24;;;;;;;6.22;4.13;;;28.50;56.80;;;;;;5123175;27;20035;-67
2023/08/22 08:36:50;;;;;;;4.88;4.38;;;28.50;56.80;;;;;;5120550;27;20083;-67
2023/08/22 08:39:17;;;;;;;4.90;4.35;;;28.50;56.80;;;;;;5120609;27;20483;-67
2023/08/22 08:42:01;;;;;;;4.88;4.38;;;28.50;56.80;;;;;;5121528;27;20502;-66
2023/08/22 08:44:27;;;;;;;4.90;4.40;;;28.50;56.80;;;;;;5121981;27;20027;-66
2023/08/22 08:46:54;;;;;;;5.10;4.60;;;28.60;56.80;;;;;;5119223;27;20028;-66
2023/08/22 08:49:20;;;;;;;5.35;4.85;;;28.60;56.80;;;;;;5119104;27;20479;-67
2023/08/22 08:51:47;;;;;;;5.15;4.30;;;28.60;56.80;;;;;;5119851;27;20028;-67
2023/08/22 08:54:13;;;;;;;5.43;4.53;;;28.60;56.80;;;;;;5116588;27;20239;-67
2023/08/22 08:56:40;;;;;;;4.63;4.13;;;28.70;56.80;;;;;;5124022;27;20051;-67
2023/08/22 08:59:06;;;;;;;4.30;3.72;;;28.70;56.80;;;;;;5121227;27;20027;-67
2023/08/22 09:01:33;;;;;;;4.20;3.50;;;28.70;56.80;;;;;;5120886;27;20173;-67
2023/08/22 09:03:59;;;;;;;3.80;3.30;;;28.60;56.70;;;;;;5121048;27;20537;-66
2023/08/22 09:06:26;;;;;;;3.72;3.10;;;28.70;56.80;;;;;;5121374;27;20105;-66
2023/08/22 09:09:06;;;;;;;3.90;3.03;;;28.60;56.70;;;;;;5120111;27;20918;-67
2023/08/22 09:11:31;;;;;;;3.45;2.90;;;28.70;56.80;;;;;;5120495;27;20022;-67
2023/08/22 09:13:58;;;;;;;3.53;2.88;;;28.70;56.70;;;;;;5119579;27;20387;-66
2023/08/22 09:16:24;;;;;;;3.10;2.75;;;28.70;56.70;;;;;;5105085;27;20034;-67
2023/08/22 09:18:50;;;;;;;3.60;3.20;;;28.70;56.70;;;;;;5118007;27;20023;-66
2023/08/22 09:21:16;;;;;;;3.72;2.95;;;28.70;56.70;;;;;;5118856;27;20363;-67
2023/08/22 09:23:42;;;;;;;3.58;2.85;;;28.70;56.70;;;;;;5119323;27;20484;-67
2023/08/22 09:26:10;;;;;;;3.42;3.08;;;28.70;56.70;;;;;;5119694;27;20039;-67
2023/08/22 09:28:39;;;;;;;3.77;3.13;;;28.70;56.70;;;;;;5121704;27;20036;-67
2023/08/22 09:31:05;;;;;;;;;;;28.70;56.70;;;;;;5136424;27;20364;-66
2023/08/22 09:33:45;;;;;;;4.68;3.33;;;28.70;56.90;;;;;;5118581;27;19932;-66
2023/08/22 09:36:10;;;;;;;3.45;3.03;;;28.70;56.60;;;;;;5120117;27;20055;-66
2023/08/22 09:38:55;;;;;;;3.35;2.80;;;28.60;56.50;;;;;;5120817;27;20062;-66
2023/08/22 09:41:25;;;;;;;3.33;2.97;;;28.70;56.60;;;;;;5120323;27;20019;-66
2023/08/22 09:43:58;;;;;;;3.75;3.08;;;28.70;56.60;;;;;;5121850;27;20570;-66
2023/08/22 09:46:24;;;;;;;3.45;3.15;;;28.70;56.60;;;;;;5120056;27;20023;-66
2023/08/22 09:48:50;;;;;;;3.28;2.90;;;28.70;56.60;;;;;;5100616;27;20034;-66
2023/08/22 09:51:20;;;;;;;3.65;3.08;;;28.70;56.60;;;;;;5121685;27;20047;-67
2023/08/22 09:53:52;;;;;;;3.38;2.97;;;28.70;56.60;;;;;;5104368;27;20131;-67
2023/08/22 09:56:19;;;;;;;3.78;2.63;;;28.70;56.60;;;;;;5118611;27;20501;-67
2023/08/22 09:58:45;;;;;;;3.05;2.63;;;28.70;56.60;;;;;;5119131;27;20032;-66
2023/08/22 10:01:14;;;;;;;2.90;2.60;;;28.70;56.60;;;;;;5118254;27;20095;-67
2023/08/22 10:03:40;;;;;;;;;;;28.70;56.60;;;;;;5116271;27;20019;-67
2023/08/22 10:06:13;;;;;;;3.60;2.80;;;28.80;56.70;;;;;;5119901;27;19911;-67
2023/08/22 10:08:45;;;;;;;3.70;3.20;;;28.80;56.70;;;;;;5118264;27;20118;-68
2023/08/22 10:11:13;;;;;;;3.85;3.00;;;28.80;56.80;;;;;;5120871;27;20023;-64
2023/08/22 10:13:40;;;;;;;3.58;2.90;;;28.80;56.90;;;;;;5120605;27;20062;-64
2023/08/22 10:16:07;;;;;;;3.45;3.00;;;28.80;56.90;;;;;;5116284;27;20509;-65
2023/08/22 10:18:33;;;;;;;3.60;2.83;;;28.80;57.00;;;;;;5116851;27;20031;-64
2023/08/22 10:20:59;;;;;;;4.35;3.20;;;28.80;57.10;;;;;;5120186;27;20019;-65
2023/08/22 10:23:52;;;;;;;3.22;2.85;;;28.80;57.10;;;;;;5118168;27;20027;-64
2023/08/22 10:26:19;;;;;;;3.20;2.72;;;28.80;57.20;;;;;;5117939;27;20047;-64
2023/08/22 10:29:15;;;;;;;3.47;2.90;;;28.80;57.20;;;;;;5121281;27;20770;-64
2023/08/22 10:31:59;;;;;;;3.85;3.00;;;28.80;57.20;;;;;;5118769;27;20561;-67
2023/08/22 10:34:45;;;;;;;3.88;3.40;;;28.80;57.30;;;;;;5118830;27;20161;-68
2023/08/22 10:37:15;;;;;;;4.03;3.13;;;28.80;57.30;;;;;;5097907;27;20149;-68
2023/08/22 10:39:48;;;;;;;4.13;3.72;;;28.80;57.40;;;;;;5120130;27;20031;-67
2023/08/22 10:42:23;;;;;;;4.68;4.10;;;28.90;57.70;;;;;;5117305;27;20077;-68
2023/08/22 10:44:54;;;;;;;4.85;4.38;;;28.90;57.50;;;;;;5118221;27;20072;-67
2023/08/22 10:47:32;;;;;;;4.32;3.92;;;29.00;57.40;;;;;;5117628;27;20432;-67
2023/08/22 10:50:00;;;;;;;4.80;4.20;;;29.00;57.30;;;;;;5117126;27;20038;-68
2023/08/22 10:52:46;;;;;;;4.75;3.78;;;29.00;57.40;;;;;;5110651;27;20070;-68
2023/08/22 10:55:14;;;;;;;4.68;3.33;;;29.00;57.60;;;;;;5113116;28;20062;-67
2023/08/22 10:57:48;;;;;;;3.95;3.20;;;29.00;57.60;;;;;;5121085;27;20394;-68
2023/08/22 11:00:25;;;;;;;4.00;3.20;;;29.00;57.70;;;;;;5120098;27;20585;-68
2023/08/22 11:02:59;;;;;;;4.03;3.40;;;29.00;57.70;;;;;;5114944;27;20027;-69
2023/08/22 11:05:26;;;;;;;3.67;3.33;;;29.00;57.70;;;;;;5118387;28;20027;-68
2023/08/22 11:07:53;;;;;;;4.00;3.60;;;29.00;57.60;;;;;;5118521;27;20027;-68
2023/08/22 11:10:24;;;;;;;3.92;3.53;;;29.00;57.50;;;;;;5117589;28;20039;-69
2023/08/22 11:12:55;;;;;;;4.25;3.75;;;29.00;57.50;;;;;;5121211;28;20024;-68
2023/08/22 11:15:21;;;;;;;4.38;3.95;;;29.10;57.50;;;;;;5120785;28;20374;-69
2023/08/22 11:17:50;;;;;;;5.05;3.50;;;29.10;57.50;;;;;;5133681;27;20486;-68
2023/08/22 11:20:20;;;;;;;4.15;3.70;;;29.10;57.40;;;;;;5119383;28;20031;-62
2023/08/22 11:22:48;;;;;;;4.25;3.53;;;29.10;57.40;;;;;;5118981;28;20046;-63
2023/08/22 11:25:23;;;;;;;4.18;3.78;;;29.10;57.30;;;;;;5118701;28;20538;-63
2023/08/22 11:27:49;;;;;;;4.05;3.65;;;29.20;57.30;;;;;;5135081;27;20498;-62
2023/08/22 11:30:18;;;;;;;4.63;4.13;;;29.20;57.20;;;;;;5117286;28;20070;-63
2023/08/22 11:32:45;;;;;;;4.10;3.63;;;29.20;57.20;;;;;;5098082;28;20034;-63
2023/08/22 11:35:11;;;;;;;4.10;3.60;;;29.20;57.20;;;;;;5099179;28;20027;-63
2023/08/22 11:37:39;;;;;;;3.85;3.42;;;29.30;57.20;;;;;;5118184;28;20046;-63
2023/08/22 11:40:08;;;;;;;4.75;3.60;;;29.30;57.20;;;;;;5116488;28;20029;-63
2023/08/22 11:42:35;;;;;;;3.95;3.55;;;29.30;57.20;;;;;;5119631;28;20035;-64
2023/08/22 11:45:08;;;;;;;3.95;3.55;;;29.30;57.10;;;;;;5101870;27;20387;-63
2023/08/22 11:47:48;;;;;;;4.55;3.78;;;29.30;57.10;;;;;;5121989;27;20027;-63
2023/08/22 11:50:25;;;;;;;4.30;3.63;;;29.30;57.10;;;;;;5121004;27;20035;-62
2023/08/22 11:52:55;;;;;;;3.80;3.40;;;29.30;57.10;;;;;;5124545;27;20030;-63
2023/08/22 11:55:26;;;;;;;4.20;3.80;;;29.30;57.00;;;;;;5103786;27;20608;-63
2023/08/22 11:58:03;;;;;;;5.78;3.45;;;29.30;57.00;;;;;;5124311;27;20471;-64
2023/08/22 12:00:31;;;;;;;3.42;3.03;;;29.30;57.00;;;;;;5123975;27;20031;-64
2023/08/22 12:02:59;;;;;;;3.77;3.37;;;29.30;57.00;;;;;;5122954;27;20036;-64
2023/08/22 12:05:36;;;;;;;4.10;3.35;;;29.30;57.00;;;;;;5123341;27;20277;-63
2023/08/22 12:08:14;;;;;;;3.70;3.25;;;29.40;57.00;;;;;;5120756;27;20059;-62
2023/08/22 12:10:40;;;;;;;3.42;3.13;;;29.30;57.00;;;;;;5121203;27;20077;-63
2023/08/22 12:13:06;;;;;;;3.92;3.47;;;29.40;57.00;;;;;;5121716;27;20028;-63
2023/08/22 12:15:33;;;;;;;3.60;3.00;;;29.40;57.00;;;;;;5121502;27;20551;-63
2023/08/22 12:17:59;;;;;;;3.60;3.30;;;29.40;57.00;;;;;;5121061;27;20024;-64
2023/08/22 12:20:25;;;;;;;3.53;3.22;;;29.40;57.00;;;;;;5122232;27;20019;-63
2023/08/22 12:22:51;;;;;;;3.95;3.55;;;29.40;57.00;;;;;;5121513;27;20034;-63
2023/08/22 12:25:17;;;;;;;4.72;3.60;;;29.40;57.00;;;;;;5122013;27;20020;-63
2023/08/22 12:27:44;;;;;;;3.67;3.10;;;29.40;57.00;;;;;;5122001;27;20738;-64
2023/08/22 12:30:12;;;;;;;3.53;3.22;;;29.40;57.00;;;;;;5121744;27;20035;-65
2023/08/22 12:32:37;;;;;;;3.50;3.20;;;29.40;57.00;;;;;;5120904;27;20530;-65
2023/08/22 12:35:04;;;;;;;3.45;3.00;;;29.40;56.90;;;;;;5121078;27;20034;-65
2023/08/22 12:37:30;;;;;;;3.45;3.15;;;29.40;57.00;;;;;;5122776;27;20055;-66
2023/08/22 12:39:56;;;;;;;3.85;3.10;;;29.40;57.00;;;;;;5123384;27;20031;-66
2023/08/22 12:42:22;;;;;;;4.05;3.45;;;29.40;56.90;;;;;;5122922;27;20381;-66
2023/08/22 12:44:48;;;;;;;3.72;3.10;;;29.40;56.90;;;;;;5124059;27;20027;-65
2023/08/22 12:47:13;;;;;;;3.83;3.05;;;29.50;57.00;;;;;;5121671;27;20479;-65
2023/08/22 12:49:39;;;;;;;3.55;3.03;;;29.40;56.90;;;;;;5118616;27;20096;-63